createdAt,value
2023-09-22T00:00:49.969Z,18.06
2023-09-22T00:04:14.783Z,18.22
2023-09-22T00:07:39.922Z,18.21
2023-09-22T00:11:04.960Z,18.29
2023-09-22T00:14:30.231Z,18.29
2023-09-22T00:17:56.595Z,18.53
2023-09-22T00:21:21.175Z,18.28
2023-09-22T00:24:46.687Z,18.12
2023-09-22T00:28:11.688Z,18.23
2023-09-22T00:31:36.788Z,18.03
2023-09-22T00:35:05.315Z,17.99
2023-09-22T00:38:31.685Z,18.02
2023-09-22T00:41:57.873Z,17.84
2023-09-22T00:45:23.182Z,17.83
2023-09-22T00:48:46.808Z,17.98
2023-09-22T00:52:12.533Z,17.66
2023-09-22T00:55:38.310Z,17.91
2023-09-22T00:59:02.701Z,17.71
2023-09-22T01:02:27.720Z,17.52
2023-09-22T01:05:52.319Z,17.64
2023-09-22T01:09:18.309Z,17.65
2023-09-22T01:12:42.426Z,17.47
2023-09-22T01:16:07.879Z,17.42
2023-09-22T01:19:33.966Z,17.46
2023-09-22T01:23:00.442Z,17.29
2023-09-22T01:26:25.120Z,17.48
2023-09-22T01:29:49.810Z,17.45
2023-09-22T01:33:14.182Z,17.29
2023-09-22T01:36:38.515Z,17.35
2023-09-22T01:40:04.665Z,17.56
2023-09-22T01:43:29.628Z,17.34
2023-09-22T01:46:54.041Z,17.22
2023-09-22T01:50:17.901Z,17.29
2023-09-22T01:53:42.563Z,17.25
2023-09-22T01:57:08.024Z,17.29
2023-09-22T02:00:32.872Z,17.43
2023-09-22T02:03:57.469Z,17.25
2023-09-22T02:07:20.996Z,17.10
2023-09-22T02:10:45.438Z,17.31
2023-09-22T02:14:12.030Z,17.17
2023-09-22T02:17:36.438Z,17.14
2023-09-22T02:21:01.836Z,17.21
2023-09-22T02:24:25.602Z,17.21
2023-09-22T02:27:50.563Z,17.35
2023-09-22T02:31:15.888Z,17.25
2023-09-22T02:34:40.891Z,17.52
2023-09-22T02:38:05.947Z,17.28
2023-09-22T02:41:30.644Z,17.29
2023-09-22T02:44:54.291Z,17.32
2023-09-22T02:48:19.685Z,17.25
2023-09-22T02:51:43.973Z,17.35
2023-09-22T02:55:09.955Z,17.38
2023-09-22T02:58:34.031Z,17.47
2023-09-22T03:01:59.087Z,17.66
2023-09-22T03:05:24.313Z,17.50
2023-09-22T03:08:49.038Z,17.47
2023-09-22T03:12:12.632Z,17.51
2023-09-22T03:15:37.691Z,17.58
2023-09-22T03:19:01.598Z,17.75
2023-09-22T03:22:27.242Z,17.56
2023-09-22T03:25:51.990Z,17.69
2023-09-22T03:29:16.203Z,17.46
2023-09-22T03:32:41.822Z,17.70
2023-09-22T03:36:07.061Z,17.55
2023-09-22T03:39:34.058Z,17.66
2023-09-22T03:42:58.543Z,17.63
2023-09-22T03:46:22.510Z,17.39
2023-09-22T03:49:46.364Z,17.46
2023-09-22T03:53:10.186Z,17.48
2023-09-22T03:56:39.043Z,17.54
2023-09-22T04:00:03.309Z,17.63
2023-09-22T04:03:37.632Z,17.58
2023-09-22T04:07:02.550Z,17.43
2023-09-22T04:10:26.340Z,17.62
2023-09-22T04:13:52.441Z,17.53
2023-09-22T04:17:16.362Z,17.46
2023-09-22T04:20:45.705Z,17.60
2023-09-22T04:24:09.561Z,17.54
2023-09-22T04:27:44.234Z,17.54
2023-09-22T04:31:13.223Z,17.58
2023-09-22T04:34:38.373Z,17.70
2023-09-22T04:38:02.992Z,17.69
2023-09-22T04:41:28.920Z,17.75
2023-09-22T04:44:53.575Z,17.75
2023-09-22T04:48:19.925Z,17.86
2023-09-22T04:51:43.743Z,17.90
2023-09-22T04:55:08.227Z,17.97
2023-09-22T04:58:32.011Z,18.08
2023-09-22T05:01:56.433Z,18.13
2023-09-22T05:05:23.711Z,18.18
2023-09-22T05:08:47.939Z,18.23
2023-09-22T05:12:12.434Z,18.35
2023-09-22T05:15:36.995Z,18.43
2023-09-22T05:19:01.606Z,18.41
2023-09-22T05:22:27.558Z,18.50
2023-09-22T05:25:52.054Z,18.67
2023-09-22T05:29:17.266Z,18.67
2023-09-22T05:32:42.414Z,18.71
2023-09-22T05:36:07.253Z,18.61
2023-09-22T05:39:33.429Z,18.71
2023-09-22T05:42:57.977Z,18.85
2023-09-22T05:46:21.749Z,18.90
2023-09-22T05:49:45.833Z,19.09
2023-09-22T05:53:09.650Z,19.11
2023-09-22T05:56:36.492Z,19.19
2023-09-22T06:00:01.087Z,19.27
2023-09-22T06:03:26.246Z,19.36
2023-09-22T06:06:52.313Z,19.43
2023-09-22T06:10:16.352Z,19.48
2023-09-22T06:13:41.834Z,19.46
2023-09-22T06:17:05.981Z,19.58
2023-09-22T06:20:30.013Z,19.68
2023-09-22T06:23:53.887Z,19.92
2023-09-22T06:27:17.874Z,19.87
2023-09-22T06:30:43.301Z,19.93
2023-09-22T06:34:08.936Z,19.95
2023-09-22T06:37:33.018Z,19.99
2023-09-22T06:40:57.698Z,20.02
2023-09-22T06:44:21.890Z,20.08
2023-09-22T06:47:47.733Z,20.06
2023-09-22T06:51:16.697Z,20.07
2023-09-22T06:54:41.058Z,20.19
2023-09-22T06:58:07.709Z,20.31
2023-09-22T07:01:31.916Z,20.36
2023-09-22T07:04:58.014Z,20.61
2023-09-22T07:08:22.247Z,20.88
2023-09-22T07:11:46.124Z,20.98
2023-09-22T07:15:10.520Z,21.11
2023-09-22T07:18:34.444Z,21.36
2023-09-22T07:22:00.218Z,21.62
2023-09-22T07:25:27.895Z,22.06
2023-09-22T07:28:51.126Z,22.22
2023-09-22T07:32:15.953Z,22.05
2023-09-22T07:35:39.940Z,21.98
2023-09-22T07:39:05.972Z,22.17
2023-09-22T07:42:33.399Z,22.65
2023-09-22T07:45:57.284Z,22.79
2023-09-22T07:49:21.796Z,22.49
2023-09-22T07:52:47.029Z,22.46
2023-09-22T07:56:13.838Z,22.55
2023-09-22T07:59:36.786Z,22.74
2023-09-22T08:03:01.489Z,22.79
2023-09-22T08:06:25.578Z,23.38
2023-09-22T08:09:48.668Z,23.24
2023-09-22T08:13:13.159Z,23.28
2023-09-22T08:16:36.608Z,23.27
2023-09-22T08:20:00.267Z,23.15
2023-09-22T08:23:31.152Z,23.39
2023-09-22T08:27:01.669Z,23.51
2023-09-22T08:30:26.537Z,23.53
2023-09-22T08:33:49.881Z,23.75
2023-09-22T08:37:12.679Z,23.86
2023-09-22T08:40:38.236Z,23.69
2023-09-22T08:44:03.342Z,23.95
2023-09-22T08:47:28.277Z,24.18
2023-09-22T08:50:52.606Z,24.38
2023-09-22T08:54:16.721Z,24.48
2023-09-22T08:57:41.264Z,24.35
2023-09-22T09:01:05.603Z,24.82
2023-09-22T09:04:35.252Z,24.91
2023-09-22T09:08:13.008Z,25.23
2023-09-22T09:11:37.333Z,26.24
2023-09-22T09:15:02.213Z,25.62
2023-09-22T09:18:26.558Z,25.80
2023-09-22T09:22:09.722Z,26.64
2023-09-22T09:25:33.842Z,27.52
2023-09-22T09:28:58.129Z,27.62
2023-09-22T09:32:26.536Z,27.15
2023-09-22T09:35:51.976Z,27.56
2023-09-22T09:39:19.713Z,27.31
2023-09-22T09:42:44.117Z,28.05
2023-09-22T09:46:10.158Z,29.05
2023-09-22T09:49:34.359Z,29.58
2023-09-22T09:52:58.302Z,29.89
2023-09-22T09:56:35.703Z,29.61
2023-09-22T09:59:59.921Z,29.93
2023-09-22T10:03:24.507Z,30.42
2023-09-22T10:06:52.251Z,29.52
2023-09-22T10:10:17.621Z,29.92
2023-09-22T10:13:45.199Z,30.22
2023-09-22T10:17:21.424Z,29.67
2023-09-22T10:20:47.475Z,29.95
2023-09-22T10:24:35.033Z,29.90
2023-09-22T10:28:03.499Z,30.56
2023-09-22T10:31:31.406Z,30.39
2023-09-22T10:34:56.279Z,30.85
2023-09-22T10:38:22.063Z,30.52
2023-09-22T10:42:01.055Z,30.92
2023-09-22T10:45:26.731Z,31.05
2023-09-22T10:48:52.814Z,31.05
2023-09-22T10:52:18.849Z,30.44
2023-09-22T10:55:44.419Z,31.36
2023-09-22T10:59:09.326Z,31.46
2023-09-22T11:02:35.408Z,30.11
2023-09-22T11:06:00.570Z,31.47
2023-09-22T11:09:35.642Z,30.53
2023-09-22T11:12:58.902Z,30.71
2023-09-22T11:16:22.884Z,31.20
2023-09-22T11:19:53.227Z,30.85
2023-09-22T11:23:17.860Z,31.04
2023-09-22T11:26:44.016Z,31.17
2023-09-22T11:30:15.575Z,30.32
2023-09-22T11:33:38.907Z,31.06
2023-09-22T11:37:02.137Z,31.86
2023-09-22T11:40:29.494Z,30.98
2023-09-22T11:43:53.397Z,32.06
2023-09-22T11:47:24.323Z,32.31
2023-09-22T11:50:56.499Z,32.12
2023-09-22T11:54:21.127Z,31.82
2023-09-22T11:57:47.795Z,30.90
2023-09-22T12:01:12.465Z,31.08
2023-09-22T12:04:40.525Z,30.81
2023-09-22T12:08:05.772Z,30.71
2023-09-22T12:11:29.649Z,30.42
2023-09-22T12:14:54.051Z,30.44
2023-09-22T12:18:17.718Z,30.14
2023-09-22T12:21:40.725Z,31.02
2023-09-22T12:25:03.599Z,30.94
2023-09-22T12:28:26.343Z,31.64
2023-09-22T12:31:50.983Z,30.94
2023-09-22T12:35:14.304Z,30.90
2023-09-22T12:38:38.622Z,31.25
2023-09-22T12:42:04.354Z,30.33
2023-09-22T12:45:30.494Z,30.32
2023-09-22T12:48:56.748Z,29.41
2023-09-22T12:52:21.903Z,29.37
2023-09-22T12:55:45.969Z,29.25
2023-09-22T12:59:10.641Z,28.82
2023-09-22T13:02:35.373Z,28.74
2023-09-22T13:06:04.461Z,28.55
2023-09-22T13:09:29.968Z,28.51
2023-09-22T13:12:54.966Z,28.43
2023-09-22T13:16:22.685Z,29.14
2023-09-22T13:19:47.757Z,29.25
2023-09-22T13:23:13.299Z,29.08
2023-09-22T13:26:37.998Z,29.06
2023-09-22T13:30:02.097Z,29.26
2023-09-22T13:33:27.757Z,29.38
2023-09-22T13:36:52.102Z,29.47
2023-09-22T13:40:19.331Z,29.55
2023-09-22T13:43:44.898Z,30.31
2023-09-22T13:47:09.792Z,30.44
2023-09-22T13:50:34.268Z,30.18
2023-09-22T13:53:59.032Z,29.87
2023-09-22T13:57:27.186Z,29.95
2023-09-22T14:00:51.954Z,29.23
2023-09-22T14:04:17.226Z,29.80
2023-09-22T14:07:41.997Z,29.62
2023-09-22T14:11:07.140Z,29.39
2023-09-22T14:14:32.146Z,30.11
2023-09-22T14:17:57.899Z,29.62
2023-09-22T14:21:22.099Z,29.59
2023-09-22T14:24:48.498Z,29.73
2023-09-22T14:28:12.786Z,29.56
2023-09-22T14:31:39.420Z,29.64
2023-09-22T14:35:03.599Z,30.08
2023-09-22T14:38:29.136Z,30.64
2023-09-22T14:41:54.248Z,31.17
2023-09-22T14:45:19.638Z,31.48
2023-09-22T14:48:45.822Z,30.27
2023-09-22T14:52:11.301Z,29.60
2023-09-22T14:55:35.838Z,30.35
2023-09-22T14:59:01.234Z,29.68
2023-09-22T15:02:25.945Z,30.11
2023-09-22T15:05:52.357Z,30.64
2023-09-22T15:09:18.802Z,30.62
2023-09-22T15:12:45.199Z,30.55
2023-09-22T15:16:10.112Z,30.65
2023-09-22T15:19:34.719Z,31.04
2023-09-22T15:23:00.368Z,30.63
2023-09-22T15:26:25.850Z,30.77
2023-09-22T15:29:50.282Z,30.73
2023-09-22T15:33:16.207Z,30.10
2023-09-22T15:36:40.494Z,29.96
2023-09-22T15:40:09.274Z,29.48
2023-09-22T15:43:34.883Z,29.02
2023-09-22T15:47:01.776Z,28.59
2023-09-22T15:50:29.201Z,28.49
2023-09-22T15:53:56.877Z,28.52
2023-09-22T15:57:24.460Z,28.49
2023-09-22T16:00:49.444Z,28.39
2023-09-22T16:04:16.246Z,28.25
2023-09-22T16:07:41.423Z,27.74
2023-09-22T16:11:10.075Z,27.51
2023-09-22T16:14:38.091Z,27.32
2023-09-22T16:18:04.381Z,27.09
2023-09-22T16:21:29.080Z,27.07
2023-09-22T16:24:54.931Z,26.70
2023-09-22T16:28:21.892Z,26.75
2023-09-22T16:31:49.972Z,26.26
2023-09-22T16:35:15.582Z,26.01
2023-09-22T16:38:42.763Z,25.86
2023-09-22T16:42:08.184Z,25.60
2023-09-22T16:45:34.774Z,25.46
2023-09-22T16:49:03.768Z,25.36
2023-09-22T16:52:31.304Z,25.11
2023-09-22T16:55:57.475Z,25.06
2023-09-22T16:59:26.527Z,24.83
2023-09-22T17:02:52.466Z,24.89
2023-09-22T17:06:20.278Z,24.64
2023-09-22T17:09:45.568Z,24.68
2023-09-22T17:13:12.178Z,24.67
2023-09-22T17:16:39.175Z,24.58
2023-09-22T17:20:07.418Z,24.43
2023-09-22T17:23:34.582Z,24.18
2023-09-22T17:27:00.596Z,24.10
2023-09-22T17:30:26.390Z,24.13
2023-09-22T17:33:51.441Z,24.06
2023-09-22T17:37:18.575Z,23.96
2023-09-22T17:40:51.927Z,23.77
2023-09-22T17:44:17.778Z,23.82
2023-09-22T17:47:44.497Z,23.90
2023-09-22T17:51:11.006Z,23.94
2023-09-22T17:54:37.170Z,23.69
2023-09-22T17:58:04.867Z,24.01
2023-09-22T18:01:31.648Z,23.59
2023-09-22T18:04:58.738Z,23.13
2023-09-22T18:08:25.316Z,22.97
2023-09-22T18:11:57.644Z,23.29
2023-09-22T18:15:26.442Z,23.18
2023-09-22T18:18:53.433Z,23.09
2023-09-22T18:22:20.349Z,23.25
2023-09-22T18:25:49.957Z,23.14
2023-09-22T18:29:17.017Z,23.08
2023-09-22T18:32:46.134Z,22.75
2023-09-22T18:36:12.243Z,22.73
2023-09-22T18:39:39.815Z,22.61
2023-09-22T18:43:06.628Z,22.57
2023-09-22T18:46:34.180Z,22.88
2023-09-22T18:50:02.588Z,22.51
2023-09-22T18:53:29.112Z,22.32
2023-09-22T18:56:56.453Z,22.77
2023-09-22T19:00:25.175Z,22.30
2023-09-22T19:03:56.086Z,22.28
2023-09-22T19:07:25.736Z,22.38
2023-09-22T19:10:53.922Z,22.25
2023-09-22T19:14:21.635Z,22.34
2023-09-22T19:17:47.655Z,22.11
2023-09-22T19:21:15.807Z,22.25
2023-09-22T19:24:50.420Z,22.06
2023-09-22T19:28:16.993Z,21.95
2023-09-22T19:31:42.087Z,22.07
2023-09-22T19:35:11.936Z,21.97
2023-09-22T19:38:38.333Z,21.86
2023-09-22T19:42:09.320Z,22.14
2023-09-22T19:45:34.633Z,22.08
2023-09-22T19:49:00.776Z,21.73
2023-09-22T19:52:27.327Z,21.87
2023-09-22T19:55:53.167Z,21.90
2023-09-22T19:59:20.579Z,21.94
2023-09-22T20:02:48.319Z,21.99
2023-09-22T20:06:15.410Z,21.76
2023-09-22T20:09:42.685Z,21.73
2023-09-22T20:13:10.604Z,21.84
2023-09-22T20:16:40.460Z,21.70
2023-09-22T20:20:08.963Z,21.72
2023-09-22T20:23:35.621Z,21.63
2023-09-22T20:27:05.383Z,21.91
2023-09-22T20:30:29.824Z,21.59
2023-09-22T20:33:57.740Z,21.56
2023-09-22T20:37:23.691Z,21.69
2023-09-22T20:40:51.430Z,21.68
2023-09-22T20:44:16.669Z,21.84
2023-09-22T20:47:46.302Z,21.84
2023-09-22T20:51:13.995Z,21.81
2023-09-22T20:54:40.552Z,21.95
2023-09-22T20:58:06.778Z,21.95
2023-09-22T21:01:32.558Z,21.82
2023-09-22T21:04:57.017Z,21.75
2023-09-22T21:08:24.135Z,21.79
2023-09-22T21:11:48.002Z,21.43
2023-09-22T21:15:13.124Z,21.74
2023-09-22T21:18:36.969Z,21.56
2023-09-22T21:22:01.927Z,21.44
2023-09-22T21:25:28.061Z,21.48
2023-09-22T21:28:53.449Z,21.43
2023-09-22T21:32:18.310Z,21.46
2023-09-22T21:35:42.648Z,21.51
2023-09-22T21:39:07.572Z,21.44
2023-09-22T21:42:33.836Z,21.38
2023-09-22T21:45:57.483Z,21.47
2023-09-22T21:49:22.054Z,21.54
2023-09-22T21:52:47.141Z,21.53
2023-09-22T21:56:11.492Z,21.70
2023-09-22T21:59:38.019Z,21.67
2023-09-22T22:03:03.383Z,22.27
2023-09-22T22:06:29.133Z,21.51
2023-09-22T22:09:54.778Z,21.63
2023-09-22T22:13:21.871Z,21.36
2023-09-22T22:16:47.663Z,21.59
2023-09-22T22:20:19.181Z,22.00
2023-09-22T22:23:44.743Z,21.39
2023-09-22T22:27:10.874Z,21.70
2023-09-22T22:30:37.716Z,21.97
2023-09-22T22:34:03.683Z,21.59
2023-09-22T22:37:28.961Z,21.81
2023-09-22T22:40:54.975Z,21.98
2023-09-22T22:44:18.905Z,21.82
2023-09-22T22:47:44.305Z,21.96
2023-09-22T22:51:11.544Z,21.80
2023-09-22T22:54:36.758Z,21.66
2023-09-22T22:58:02.110Z,21.71
2023-09-22T23:01:29.812Z,21.72
2023-09-22T23:04:55.343Z,21.64
2023-09-22T23:08:21.944Z,21.34
2023-09-22T23:11:46.911Z,21.12
2023-09-22T23:15:14.268Z,21.26
2023-09-22T23:18:38.398Z,21.23
2023-09-22T23:22:09.201Z,21.09
2023-09-22T23:25:36.438Z,21.46
2023-09-22T23:29:02.422Z,21.11
2023-09-22T23:32:27.973Z,21.06
2023-09-22T23:35:54.599Z,21.11
2023-09-22T23:39:19.011Z,20.99
2023-09-22T23:42:46.713Z,21.16
2023-09-22T23:46:11.184Z,21.18
2023-09-22T23:49:36.286Z,20.86
2023-09-22T23:53:01.249Z,20.87
2023-09-22T23:56:26.134Z,20.76
2023-09-22T23:59:52.172Z,20.46
